Time;durP1;ratioP1;P1;durP2;ratioP2;P2;SDS_P1;SDS_P2;PMS_P1;PMS_P2;Temp;Humidity;BMP_temperature;BMP_pressure;BME280_temperature;BME280_humidity;BME280_pressure;Samples;Min_cycle;Max_cycle;Signal;HPM_P1;HPM_P2
2023/01/31 00:02:51;;;;;;;11.10;6.70;;;;;;;1.98;89.72;99251.21;214609;1263;72608;-75
2023/01/31 00:07:44;;;;;;;11.90;7.30;;;;;;;1.98;89.81;99246.92;214603;1264;61291;-75
2023/01/31 00:12:37;;;;;;;9.50;6.90;;;;;;;1.98;89.99;99254.98;214727;1264;61261;-75
2023/01/31 00:17:30;;;;;;;10.10;7.20;;;;;;;2.00;89.95;99260.49;214587;1264;61914;-75
2023/01/31 00:22:23;;;;;;;11.10;6.30;;;;;;;2.01;89.67;99255.91;214535;1264;61317;-75
2023/01/31 00:27:16;;;;;;;10.20;6.80;;;;;;;2.03;89.82;99268.63;214523;1264;61312;-75
2023/01/31 00:32:09;;;;;;;10.60;6.60;;;;;;;2.06;89.83;99274.52;214569;1267;61289;-75
2023/01/31 00:37:02;;;;;;;12.10;6.40;;;;;;;2.09;89.70;99279.54;214668;1267;61280;-75
2023/01/31 00:41:57;;;;;;;10.20;6.90;;;;;;;2.11;89.87;99287.65;214630;1264;61374;-75
2023/01/31 00:46:50;;;;;;;12.60;8.50;;;;;;;2.13;89.68;99287.88;214637;1263;74388;-75
2023/01/31 00:51:44;;;;;;;10.30;6.90;;;;;;;2.14;89.69;99298.84;214595;1264;61274;-75
2023/01/31 00:56:37;;;;;;;11.90;7.80;;;;;;;2.15;89.67;99299.20;214547;1264;61343;-75
2023/01/31 01:01:30;;;;;;;10.70;6.60;;;;;;;2.15;89.91;99302.63;214569;1263;67192;-75
2023/01/31 01:06:24;;;;;;;11.50;7.80;;;;;;;2.16;89.89;99305.89;214598;1263;62685;-76
2023/01/31 01:11:23;;;;;;;10.10;6.70;;;;;;;2.17;89.70;99306.60;214567;1267;74574;-75
2023/01/31 01:16:22;;;;;;;16.80;6.60;;;;;;;2.18;89.57;99311.08;214494;1263;70173;-75
2023/01/31 01:21:21;;;;;;;8.40;5.40;;;;;;;2.20;89.86;99314.04;214569;1266;61291;-76
2023/01/31 01:26:23;;;;;;;9.70;6.10;;;;;;;2.20;89.83;99316.79;214542;1264;66965;-75
2023/01/31 01:31:18;;;;;;;10.80;7.30;;;;;;;2.20;89.59;99316.80;214499;1264;61326;-75
2023/01/31 01:36:16;;;;;;;14.90;6.10;;;;;;;2.20;89.78;99321.42;214568;1264;73375;-75
2023/01/31 01:41:12;;;;;;;12.30;6.80;;;;;;;2.22;89.70;99325.05;214521;1264;71404;-75
2023/01/31 01:46:05;;;;;;;12.20;6.40;;;;;;;2.23;89.74;99324.89;214551;1263;61460;-75
2023/01/31 01:50:59;;;;;;;9.00;6.80;;;;;;;2.22;89.75;99329.85;214602;1264;67284;-75
2023/01/31 01:55:57;;;;;;;9.70;6.40;;;;;;;2.23;89.60;99343.04;214566;1264;61281;-75
2023/01/31 02:00:53;;;;;;;20.90;8.10;;;;;;;2.25;89.52;99353.02;214625;1267;75717;-75
2023/01/31 02:05:55;;;;;;;11.80;5.70;;;;;;;2.26;89.42;99359.70;214580;1265;71761;-75
2023/01/31 02:10:51;;;;;;;9.90;6.10;;;;;;;2.27;89.36;99371.71;214590;1263;61353;-75
2023/01/31 02:15:45;;;;;;;9.40;5.50;;;;;;;2.28;89.37;99378.58;214569;1264;67082;-75
2023/01/31 02:21:00;;;;;;;13.40;6.00;;;;;;;2.28;89.39;99389.52;214572;1264;61345;-75
2023/01/31 02:26:42;;;;;;;9.90;6.80;;;;;;;2.29;89.29;99397.40;214578;1262;73338;-75
2023/01/31 02:31:59;;;;;;;11.10;6.50;;;;;;;2.31;89.22;99412.81;214551;1264;72658;-76
2023/01/31 02:37:12;;;;;;;9.50;6.20;;;;;;;2.33;89.05;99414.77;214632;1264;61285;-75
2023/01/31 02:42:21;;;;;;;12.50;6.50;;;;;;;2.33;89.48;99415.14;214592;1264;66599;-75
2023/01/31 02:47:42;;;;;;;10.90;6.10;;;;;;;2.34;89.22;99417.20;214552;1264;61877;-76
2023/01/31 02:52:46;;;;;;;11.20;5.30;;;;;;;2.36;88.98;99429.72;214611;1264;74607;-75
2023/01/31 02:57:41;;;;;;;9.20;5.10;;;;;;;2.37;89.31;99437.13;214641;1267;72685;-75
2023/01/31 03:02:35;;;;;;;10.30;6.40;;;;;;;2.38;89.23;99449.80;214505;1264;61340;-75
2023/01/31 03:07:36;;;;;;;9.70;4.80;;;;;;;2.39;88.95;99454.29;214481;1263;67314;-75
2023/01/31 03:12:49;;;;;;;7.40;4.90;;;;;;;2.41;88.84;99465.79;214617;1264;61938;-75
2023/01/31 03:18:05;;;;;;;11.20;4.20;;;;;;;2.41;88.85;99475.72;214532;1264;74472;-75
2023/01/31 03:23:03;;;;;;;13.90;5.30;;;;;;;2.41;88.81;99482.05;214446;1263;72566;-75
2023/01/31 03:28:02;;;;;;;8.90;4.50;;;;;;;2.42;88.70;99485.85;214575;1264;61515;-75
2023/01/31 03:33:14;;;;;;;11.70;6.40;;;;;;;2.43;88.51;99492.55;214612;1264;69649;-76
2023/01/31 03:38:13;;;;;;;8.10;4.10;;;;;;;2.43;88.86;99500.60;214537;1263;61369;-75
2023/01/31 03:43:20;;;;;;;9.20;4.20;;;;;;;2.44;88.58;99503.67;214602;1263;73491;-75
2023/01/31 03:48:18;;;;;;;14.10;5.80;;;;;;;2.44;88.71;99501.98;214575;1264;71851;-75
2023/01/31 03:53:25;;;;;;;11.80;4.70;;;;;;;2.44;88.54;99505.41;214561;1264;61282;-75
2023/01/31 03:58:21;;;;;;;14.10;4.40;;;;;;;2.45;88.39;99506.27;214559;1263;65795;-75
2023/01/31 04:03:26;;;;;;;11.50;4.60;;;;;;;2.45;88.48;99512.77;214670;1262;62029;-75
2023/01/31 04:08:20;;;;;;;10.00;4.00;;;;;;;2.45;88.33;99515.52;214598;1262;75001;-76
2023/01/31 04:13:21;;;;;;;14.00;4.90;;;;;;;2.44;88.29;99519.10;214477;1263;73610;-75
2023/01/31 04:18:14;;;;;;;11.10;4.60;;;;;;;2.44;88.13;99527.11;214427;1264;138043;-76
2023/01/31 04:23:07;;;;;;;9.90;4.50;;;;;;;2.43;88.14;99527.42;214655;1263;61259;-76
2023/01/31 04:27:59;;;;;;;13.70;3.80;;;;;;;2.42;87.86;99534.42;214683;1263;61397;-75
2023/01/31 04:32:57;;;;;;;11.00;3.50;;;;;;;2.43;87.80;99542.99;214570;1262;76484;-76
2023/01/31 04:37:50;;;;;;;10.00;4.00;;;;;;;2.42;87.72;99553.39;214567;1264;72999;-76
2023/01/31 04:42:47;;;;;;;14.10;4.70;;;;;;;2.41;87.65;99563.27;214571;1264;61259;-76
2023/01/31 04:47:42;;;;;;;11.80;3.70;;;;;;;2.41;87.63;99568.08;214551;1263;67257;-75
2023/01/31 04:52:35;;;;;;;20.10;4.10;;;;;;;2.43;87.47;99574.29;214537;1263;61286;-75
2023/01/31 04:57:30;;;;;;;13.60;3.40;;;;;;;2.42;87.36;99576.16;214579;1264;73724;-76
2023/01/31 05:02:25;;;;;;;11.50;3.90;;;;;;;2.43;87.19;99583.04;214547;1262;73520;-76
2023/01/31 05:07:18;;;;;;;13.20;3.80;;;;;;;2.44;87.18;99588.70;214588;1263;61398;-76
2023/01/31 05:12:11;;;;;;;9.40;3.20;;;;;;;2.42;86.75;99599.42;214562;1264;61294;-76
2023/01/31 05:17:05;;;;;;;17.90;5.40;;;;;;;2.39;86.77;99610.09;214505;1263;61895;-75
2023/01/31 05:22:00;;;;;;;10.60;3.00;;;;;;;2.35;86.61;99619.36;214525;1264;75678;-75
2023/01/31 05:26:57;;;;;;;18.80;4.30;;;;;;;2.33;86.56;99629.23;214488;1264;72448;-75
2023/01/31 05:31:53;;;;;;;11.90;3.80;;;;;;;2.32;86.43;99634.30;214543;1263;61426;-77
2023/01/31 05:36:46;;;;;;;6.90;2.90;;;;;;;2.32;86.50;99649.70;214470;1264;65876;-76
2023/01/31 05:41:39;;;;;;;11.20;3.10;;;;;;;2.32;86.38;99659.29;214493;1265;61966;-75
2023/01/31 05:46:32;;;;;;;12.90;3.30;;;;;;;2.34;86.22;99672.50;214519;1264;61245;-76
2023/01/31 05:51:25;;;;;;;9.70;3.10;;;;;;;2.33;86.27;99675.74;214574;1264;71474;-76
2023/01/31 05:56:18;;;;;;;10.70;4.00;;;;;;;2.34;86.22;99681.91;214653;1264;61284;-76
2023/01/31 06:01:11;;;;;;;18.10;4.00;;;;;;;2.34;86.25;99686.39;214470;1264;59870;-75
2023/01/31 06:06:04;;;;;;;15.50;3.60;;;;;;;2.31;86.03;99692.61;214470;1265;61872;-76
2023/01/31 06:10:59;;;;;;;18.60;5.10;;;;;;;2.24;85.60;99705.54;214479;1264;61381;-76
2023/01/31 06:15:53;;;;;;;12.80;4.00;;;;;;;2.18;85.84;99717.33;214665;1263;73494;-76
2023/01/31 06:20:46;;;;;;;12.90;3.70;;;;;;;2.15;85.74;99734.28;214644;1264;61317;-76
2023/01/31 06:25:39;;;;;;;14.70;3.90;;;;;;;2.13;85.48;99746.88;214443;1264;61318;-76
2023/01/31 06:30:32;;;;;;;12.50;4.00;;;;;;;2.13;85.64;99756.79;214484;1264;61265;-75
2023/01/31 06:35:26;;;;;;;11.80;4.00;;;;;;;2.16;85.65;99768.54;214560;1264;74633;-76
2023/01/31 06:40:19;;;;;;;17.60;3.60;;;;;;;2.21;85.59;99774.34;214556;1264;71469;-76
2023/01/31 06:45:12;;;;;;;10.90;3.10;;;;;;;2.26;85.59;99781.02;214613;1264;61275;-76
2023/01/31 06:50:05;;;;;;;9.30;3.80;;;;;;;2.30;85.34;99788.16;214601;1264;62020;-76
2023/01/31 06:54:58;;;;;;;11.90;3.10;;;;;;;2.35;85.14;99795.85;214574;1265;61224;-76
2023/01/31 06:59:51;;;;;;;12.40;4.50;;;;;;;2.40;85.18;99799.27;214552;1264;62105;-75
2023/01/31 07:04:44;;;;;;;13.30;4.20;;;;;;;2.43;84.89;99812.89;214603;1266;61280;-76
2023/01/31 07:09:37;;;;;;;9.90;3.30;;;;;;;2.46;84.88;99822.78;214583;1264;61338;-75
2023/01/31 07:14:30;;;;;;;10.50;3.40;;;;;;;2.49;84.97;99830.20;214606;1262;61353;-75
2023/01/31 07:19:23;;;;;;;14.40;3.40;;;;;;;2.54;84.68;99832.27;214601;1264;61342;-75
2023/01/31 07:24:16;;;;;;;16.10;4.30;;;;;;;2.59;84.65;99834.36;214610;1264;61398;-75
2023/01/31 07:29:10;;;;;;;15.80;3.80;;;;;;;2.66;84.65;99845.36;214474;1264;61343;-76
2023/01/31 07:34:04;;;;;;;13.50;3.20;;;;;;;2.74;84.37;99852.29;214605;1264;61304;-76
2023/01/31 07:38:58;;;;;;;7.30;3.10;;;;;;;2.79;84.16;99851.95;214429;1264;67254;-75
2023/01/31 07:43:52;;;;;;;10.40;3.40;;;;;;;2.84;83.91;99851.47;214500;1264;61249;-75
2023/01/31 07:48:45;;;;;;;11.50;3.30;;;;;;;2.89;83.62;99857.96;214508;1264;61558;-75
2023/01/31 07:53:41;;;;;;;7.60;2.90;;;;;;;2.96;83.23;99868.30;214476;1265;62204;-75
2023/01/31 07:58:38;;;;;;;8.40;4.80;;;;;;;3.00;83.30;99875.95;214555;1267;61369;-75
2023/01/31 08:03:35;;;;;;;7.90;3.20;;;;;;;3.07;82.87;99879.95;214456;1264;65849;-75
2023/01/31 08:08:27;;;;;;;9.20;3.10;;;;;;;3.13;82.59;99890.79;214491;1264;61123;-75
2023/01/31 08:13:22;;;;;;;12.00;3.30;;;;;;;3.17;82.49;99901.02;214518;1265;74644;-74
2023/01/31 08:18:15;;;;;;;8.80;3.30;;;;;;;3.21;82.17;99904.59;214353;1265;73506;-74
2023/01/31 08:23:08;;;;;;;7.40;2.50;;;;;;;3.22;81.97;99912.83;214533;1267;61268;-74
2023/01/31 08:28:02;;;;;;;10.50;3.20;;;;;;;3.22;81.45;99921.23;214557;1263;61278;-75
2023/01/31 08:32:55;;;;;;;11.00;4.20;;;;;;;3.22;81.44;99931.34;214426;1264;61246;-74
2023/01/31 08:37:48;;;;;;;7.00;3.80;;;;;;;3.23;81.28;99934.77;214451;1266;74284;-75
2023/01/31 08:42:41;;;;;;;7.00;2.90;;;;;;;3.22;81.21;99942.11;214499;1265;72623;-75
2023/01/31 08:47:35;;;;;;;10.70;3.70;;;;;;;3.22;81.24;99948.79;214479;1264;61278;-75
2023/01/31 08:52:28;;;;;;;10.20;3.70;;;;;;;3.31;81.35;99953.21;214593;1264;67000;-75
2023/01/31 08:57:21;;;;;;;7.90;3.40;;;;;;;3.39;80.66;99953.84;214497;1263;61391;-75
2023/01/31 09:02:15;;;;;;;12.70;3.30;;;;;;;3.46;80.54;99957.33;214450;1264;61315;-74
2023/01/31 09:07:07;;;;;;;6.50;3.20;;;;;;;3.50;79.94;99959.48;214517;1264;72477;-74
2023/01/31 09:12:00;;;;;;;6.40;4.10;;;;;;;3.53;79.77;99965.09;214452;1264;61349;-74
2023/01/31 09:16:53;;;;;;;7.60;2.80;;;;;;;3.60;79.52;99966.51;214497;1264;67815;-74
2023/01/31 09:21:46;;;;;;;12.20;4.60;;;;;;;3.72;79.49;99965.86;214575;1264;61771;-75
2023/01/31 09:26:39;;;;;;;9.40;3.00;;;;;;;3.84;79.04;99977.21;214421;1264;61289;-76
2023/01/31 09:31:32;;;;;;;10.00;4.10;;;;;;;3.92;78.60;99973.89;214512;1265;61345;-77
2023/01/31 09:36:26;;;;;;;6.20;2.40;;;;;;;3.91;78.47;99981.57;214450;1264;61263;-76
2023/01/31 09:41:28;;;;;;;8.70;3.00;;;;;;;3.93;78.35;99985.40;214437;1264;67877;-74
2023/01/31 09:46:26;;;;;;;7.00;2.70;;;;;;;3.91;78.24;99983.27;214343;1264;61273;-75
2023/01/31 09:51:20;;;;;;;8.60;2.90;;;;;;;3.92;77.77;99979.53;214470;1265;72734;-75
2023/01/31 09:56:23;;;;;;;6.30;2.60;;;;;;;3.90;77.75;99985.30;214413;1264;71980;-74
2023/01/31 10:01:31;;;;;;;5.40;1.70;;;;;;;3.91;77.56;99983.29;214559;1264;61286;-74
2023/01/31 10:06:30;;;;;;;10.70;3.50;;;;;;;3.95;77.65;99985.46;214420;1264;67233;-74
2023/01/31 10:11:34;;;;;;;14.00;3.30;;;;;;;4.07;77.55;99992.54;214444;1265;61930;-74
2023/01/31 10:16:43;;;;;;;6.60;2.70;;;;;;;4.21;77.01;99995.05;214552;1264;74477;-73
2023/01/31 10:21:43;;;;;;;8.00;2.60;;;;;;;4.31;76.95;100000.64;214478;1264;73524;-75
2023/01/31 10:26:40;;;;;;;9.70;3.10;;;;;;;4.29;76.31;99998.55;214496;1264;61571;-74
2023/01/31 10:31:43;;;;;;;10.10;3.40;;;;;;;4.33;76.50;99995.23;214610;1264;68317;-74
2023/01/31 10:36:45;;;;;;;9.20;2.50;;;;;;;4.40;76.15;99993.02;214531;1264;61268;-75
2023/01/31 10:42:11;;;;;;;7.40;3.20;;;;;;;4.37;75.88;99991.91;214511;1264;74271;-75
2023/01/31 10:47:12;;;;;;;5.30;2.40;;;;;;;4.37;76.05;99985.91;214462;1264;72369;-73
2023/01/31 10:52:05;;;;;;;10.40;3.60;;;;;;;4.41;75.61;99987.41;214513;1264;61309;-75
2023/01/31 10:56:58;;;;;;;8.00;3.10;;;;;;;4.52;75.37;99989.95;214471;1265;61239;-74
2023/01/31 11:01:52;;;;;;;12.60;2.90;;;;;;;4.54;74.84;99989.68;214569;1267;61368;-75
2023/01/31 11:06:45;;;;;;;12.00;3.50;;;;;;;4.51;74.94;99989.08;214570;1264;74573;-74
2023/01/31 11:11:55;;;;;;;5.70;2.40;;;;;;;4.58;74.69;99981.38;214455;1264;61366;-75
2023/01/31 11:16:49;;;;;;;8.60;2.70;;;;;;;4.73;74.54;99982.68;214519;1264;61276;-74
2023/01/31 11:21:47;;;;;;;9.90;2.90;;;;;;;4.79;74.31;99983.88;214525;1263;67427;-73
2023/01/31 11:26:55;;;;;;;6.70;2.40;;;;;;;5.15;73.65;99985.91;214656;1263;61211;-75
2023/01/31 11:31:49;;;;;;;6.90;2.40;;;;;;;5.30;72.60;99989.05;214539;1267;74111;-75
2023/01/31 11:36:44;;;;;;;7.40;3.50;;;;;;;5.84;72.00;99980.44;214533;1264;73127;-74
2023/01/31 11:41:41;;;;;;;11.50;2.80;;;;;;;6.60;70.78;99974.96;214516;1264;61267;-74
2023/01/31 11:46:44;;;;;;;6.80;2.40;;;;;;;6.18;70.20;99983.52;214623;1263;65718;-74
2023/01/31 11:51:39;;;;;;;8.40;2.50;;;;;;;6.30;69.89;99986.69;214601;1264;61386;-74
2023/01/31 11:56:36;;;;;;;9.10;2.50;;;;;;;6.00;69.84;99985.66;214552;1264;73533;-73
2023/01/31 12:01:30;;;;;;;9.60;2.90;;;;;;;5.59;70.44;99984.11;214581;1265;72324;-72
2023/01/31 12:06:36;;;;;;;6.40;2.20;;;;;;;5.34;70.95;99978.16;214526;1264;61374;-76
2023/01/31 12:11:30;;;;;;;4.00;2.30;;;;;;;5.11;70.79;99974.46;214519;1264;65381;-74
2023/01/31 12:16:27;;;;;;;9.30;2.40;;;;;;;4.81;70.91;99969.34;214537;1264;61345;-77
2023/01/31 12:21:22;;;;;;;6.80;2.30;;;;;;;4.55;71.05;99964.83;214537;1267;74766;-74
2023/01/31 12:26:34;;;;;;;6.50;2.30;;;;;;;4.41;71.41;99964.25;214453;1264;73665;-75
2023/01/31 12:31:46;;;;;;;9.00;2.80;;;;;;;4.38;71.36;99961.07;214551;1265;61383;-75
2023/01/31 12:36:57;;;;;;;6.40;2.40;;;;;;;4.29;71.41;99958.73;214441;1264;67851;-74
2023/01/31 12:42:02;;;;;;;6.70;2.40;;;;;;;4.22;71.33;99955.77;214524;1264;61837;-75
2023/01/31 12:47:08;;;;;;;4.10;2.20;;;;;;;4.23;71.99;99957.35;214424;1264;74592;-73
2023/01/31 12:52:21;;;;;;;10.90;3.40;;;;;;;4.25;72.18;99958.60;214401;1265;72403;-75
2023/01/31 12:57:45;;;;;;;7.20;3.00;;;;;;;4.27;72.28;99959.20;214507;1265;61263;-74
2023/01/31 13:03:11;;;;;;;10.90;3.30;;;;;;;4.40;72.02;99953.41;214464;1265;67001;-75
2023/01/31 13:08:16;;;;;;;8.00;3.70;;;;;;;4.50;71.47;99953.52;214528;1262;61272;-74
2023/01/31 13:13:26;;;;;;;7.60;3.90;;;;;;;4.55;71.35;99954.70;214553;1265;74708;-74
2023/01/31 13:18:22;;;;;;;9.70;3.50;;;;;;;4.55;71.69;99949.05;214457;1265;72788;-74
2023/01/31 13:23:23;;;;;;;9.30;4.40;;;;;;;4.74;71.41;99939.59;214425;1265;61271;-75
2023/01/31 13:28:23;;;;;;;5.10;2.30;;;;;;;4.88;70.93;99938.97;214482;1264;65499;-74
2023/01/31 13:33:18;;;;;;;5.80;2.80;;;;;;;4.66;70.76;99933.55;214486;1264;61474;-74
2023/01/31 13:38:17;;;;;;;5.00;2.00;;;;;;;4.41;70.51;99933.52;214517;1264;73087;-75
2023/01/31 13:43:15;;;;;;;8.70;2.70;;;;;;;4.29;70.59;99936.09;214545;1268;72495;-75
2023/01/31 13:48:19;;;;;;;7.50;3.00;;;;;;;4.41;70.58;99925.95;214566;1263;61213;-74
2023/01/31 13:53:27;;;;;;;9.10;2.50;;;;;;;4.48;70.41;99930.64;214527;1265;67892;-74
2023/01/31 13:58:30;;;;;;;4.70;2.20;;;;;;;4.45;70.35;99930.05;214533;1264;61381;-73
2023/01/31 14:03:26;;;;;;;10.30;4.00;;;;;;;4.28;70.11;99939.65;214441;1265;73719;-73
2023/01/31 14:08:25;;;;;;;5.00;2.50;;;;;;;4.08;70.30;99954.33;214473;1265;72281;-74
2023/01/31 14:13:26;;;;;;;9.70;2.70;;;;;;;3.89;70.08;99954.76;214543;1264;61302;-75
2023/01/31 14:18:58;;;;;;;11.50;4.10;;;;;;;3.76;70.34;99961.54;214453;1265;67299;-73
2023/01/31 14:23:51;;;;;;;5.80;3.50;;;;;;;3.64;69.94;99962.52;213891;1269;61259;-75
2023/01/31 14:28:44;;;;;;;4.90;3.10;;;;;;;3.52;69.71;99960.92;213854;1272;72588;-74
2023/01/31 14:33:37;;;;;;;9.70;2.60;;;;;;;3.40;69.77;99956.93;213835;1273;72273;-75
2023/01/31 14:38:42;;;;;;;8.90;3.20;;;;;;;3.28;69.73;99955.85;213867;1271;61367;-74
2023/01/31 14:44:02;;;;;;;8.10;3.80;;;;;;;3.21;70.23;99956.13;213907;1272;67051;-74
2023/01/31 14:49:20;;;;;;;7.40;3.80;;;;;;;3.15;70.46;99961.20;213872;1271;61264;-74
2023/01/31 14:54:35;;;;;;;6.40;3.40;;;;;;;3.09;70.72;99961.86;214317;1265;72424;-74
2023/01/31 14:59:36;;;;;;;7.60;3.40;;;;;;;3.01;70.52;99955.80;214506;1265;71702;-74
2023/01/31 15:04:29;;;;;;;11.00;4.30;;;;;;;2.98;71.33;99949.17;214524;1264;61266;-77
2023/01/31 15:09:23;;;;;;;12.50;3.50;;;;;;;2.95;71.06;99945.98;214412;1263;65897;-75
2023/01/31 15:14:23;;;;;;;12.20;3.90;;;;;;;2.89;71.33;99943.02;214471;1264;61306;-75
2023/01/31 15:19:30;;;;;;;12.80;4.80;;;;;;;2.83;71.40;99942.31;214473;1265;73505;-74
2023/01/31 15:24:32;;;;;;;8.30;4.10;;;;;;;2.77;71.81;99942.61;214434;1264;72596;-75
2023/01/31 15:29:33;;;;;;;6.50;4.50;;;;;;;2.71;71.51;99942.39;214452;1267;61318;-75
2023/01/31 15:34:32;;;;;;;15.30;5.30;;;;;;;2.64;71.50;99943.52;214561;1265;67294;-75
2023/01/31 15:39:32;;;;;;;11.10;4.20;;;;;;;2.57;71.89;99937.76;214531;1266;61339;-75
2023/01/31 15:44:28;;;;;;;13.30;5.60;;;;;;;2.47;72.12;99939.48;214559;1265;74953;-75
2023/01/31 15:49:23;;;;;;;13.00;4.60;;;;;;;2.36;71.87;99937.50;214510;1266;72414;-74
2023/01/31 15:54:31;;;;;;;10.90;4.90;;;;;;;2.24;72.05;99947.52;214431;1265;61361;-75
2023/01/31 15:59:28;;;;;;;6.80;4.30;;;;;;;2.19;72.33;99942.01;214343;1267;67026;-74
2023/01/31 16:04:22;;;;;;;10.50;6.10;;;;;;;2.16;72.48;99936.43;214406;1262;61270;-75
2023/01/31 16:09:37;;;;;;;10.10;4.80;;;;;;;2.14;72.49;99941.98;214443;1266;74360;-74
2023/01/31 16:14:30;;;;;;;12.20;7.00;;;;;;;2.12;72.87;99951.48;214506;1262;72644;-76
2023/01/31 16:19:34;;;;;;;10.50;6.10;;;;;;;2.11;72.71;99951.44;214252;1266;141155;-77
2023/01/31 16:24:28;;;;;;;16.60;5.60;;;;;;;2.13;72.98;99959.05;214333;1267;67980;-76
2023/01/31 16:29:24;;;;;;;14.80;5.70;;;;;;;2.15;72.98;99956.05;214810;1262;61431;-76
2023/01/31 16:34:26;;;;;;;13.00;6.90;;;;;;;2.19;73.36;99949.52;214313;1264;74492;-74
2023/01/31 16:39:33;;;;;;;16.40;7.10;;;;;;;2.19;73.31;99946.48;214357;1264;72702;-74
2023/01/31 16:44:33;;;;;;;16.40;7.30;;;;;;;2.21;73.29;99937.63;214292;1267;61363;-74
2023/01/31 16:50:28;;;;;;;10.30;5.30;;;;;;;2.19;73.24;99936.85;214275;1268;67701;-75
2023/01/31 16:55:39;;;;;;;13.20;7.00;;;;;;;2.15;73.13;99929.86;213803;1269;62282;-77
2023/01/31 17:00:43;;;;;;;10.30;6.00;;;;;;;2.14;73.57;99925.73;213759;1268;74808;-74
2023/01/31 17:05:42;;;;;;;17.30;6.40;;;;;;;2.13;73.83;99913.92;214583;1269;61295;-74
2023/01/31 17:10:39;;;;;;;14.00;6.70;;;;;;;2.10;73.54;99909.16;213833;1268;61402;-74
2023/01/31 17:15:32;;;;;;;17.30;7.30;;;;;;;2.04;73.47;99900.91;215347;1268;66126;-74
2023/01/31 17:20:25;;;;;;;12.60;6.50;;;;;;;2.04;73.63;99895.60;214150;1272;61333;-74
2023/01/31 17:25:21;;;;;;;18.60;8.40;;;;;;;2.05;73.75;99891.72;214275;1273;61421;-74
2023/01/31 17:30:16;;;;;;;13.20;5.30;;;;;;;2.06;73.65;99886.11;214230;1268;72680;-74
2023/01/31 17:35:19;;;;;;;16.40;6.40;;;;;;;2.06;73.87;99883.72;214502;1264;61389;-75
2023/01/31 17:40:13;;;;;;;14.10;5.80;;;;;;;2.05;73.92;99873.77;214186;1267;67439;-72
2023/01/31 17:45:12;;;;;;;10.90;5.40;;;;;;;2.04;74.03;99869.96;214203;1264;61257;-73
2023/01/31 17:50:05;;;;;;;15.20;7.00;;;;;;;2.01;73.98;99858.77;214675;1267;76040;-73
2023/01/31 17:54:58;;;;;;;14.60;7.20;;;;;;;1.97;74.10;99849.54;214317;1268;71631;-73
2023/01/31 17:59:51;;;;;;;13.00;6.50;;;;;;;1.91;74.09;99832.04;214331;1263;61309;-73
2023/01/31 18:04:45;;;;;;;14.60;7.30;;;;;;;1.84;74.34;99824.46;214370;1267;67052;-73
2023/01/31 18:09:38;;;;;;;17.80;7.60;;;;;;;1.79;74.55;99815.55;215962;1264;61031;-74
2023/01/31 18:14:31;;;;;;;14.50;7.60;;;;;;;1.77;74.49;99805.91;216533;1267;75754;-73
2023/01/31 18:19:24;;;;;;;20.90;8.20;;;;;;;1.75;74.22;99796.42;214473;1264;70141;-73
2023/01/31 18:24:17;;;;;;;13.80;6.40;;;;;;;1.74;74.27;99791.77;214571;1264;61365;-73
2023/01/31 18:29:18;;;;;;;18.00;7.80;;;;;;;1.72;74.82;99782.65;214510;1268;61085;-73
2023/01/31 18:34:11;;;;;;;11.60;6.00;;;;;;;1.71;74.37;99777.14;214939;1264;61388;-73
2023/01/31 18:39:03;;;;;;;13.10;6.10;;;;;;;1.68;74.86;99772.25;214347;1264;61274;-73
2023/01/31 18:43:56;;;;;;;18.90;7.90;;;;;;;1.65;74.75;99768.23;215416;1267;61215;-73
2023/01/31 18:48:49;;;;;;;16.50;6.90;;;;;;;1.64;74.96;99756.55;214597;1268;61385;-73
2023/01/31 18:53:46;;;;;;;13.90;7.10;;;;;;;1.65;75.22;99750.08;214397;1268;61392;-73
2023/01/31 18:58:40;;;;;;;15.90;8.50;;;;;;;1.68;75.20;99737.39;214528;1269;61209;-72
2023/01/31 19:03:33;;;;;;;14.00;8.00;;;;;;;1.71;75.26;99722.65;214361;1264;74522;-73
2023/01/31 19:08:26;;;;;;;22.60;7.80;;;;;;;1.72;75.55;99714.66;214395;1264;72430;-73
2023/01/31 19:13:19;;;;;;;12.80;6.50;;;;;;;1.74;75.79;99715.76;214274;1264;61261;-73
2023/01/31 19:18:13;;;;;;;16.90;8.80;;;;;;;1.75;76.05;99707.08;214663;1267;61427;-73
2023/01/31 19:23:06;;;;;;;13.50;7.00;;;;;;;1.77;76.13;99704.09;214784;1264;62024;-73
2023/01/31 19:27:59;;;;;;;17.40;7.30;;;;;;;1.80;76.59;99703.14;214501;1264;73813;-73
2023/01/31 19:32:52;;;;;;;22.60;8.40;;;;;;;1.81;77.04;99699.42;214613;1264;73233;-73
2023/01/31 19:37:45;;;;;;;14.50;7.50;;;;;;;1.82;77.37;99689.89;214499;1264;61240;-74
2023/01/31 19:42:39;;;;;;;13.70;8.60;;;;;;;1.81;77.55;99676.18;214876;1267;61250;-73
2023/01/31 19:47:33;;;;;;;15.70;8.10;;;;;;;1.80;77.79;99667.27;214294;1267;61281;-74
2023/01/31 19:52:25;;;;;;;13.40;7.40;;;;;;;1.81;78.33;99658.74;214564;1264;73347;-74
2023/01/31 19:57:58;;;;;;;13.80;7.90;;;;;;;1.81;78.53;99647.33;214511;1266;61267;-73
2023/01/31 20:02:51;;;;;;;16.20;7.80;;;;;;;1.81;78.81;99632.44;213146;1276;61339;-74
2023/01/31 20:07:44;;;;;;;15.70;8.00;;;;;;;1.81;79.09;99616.21;213188;1274;61355;-73
2023/01/31 20:12:37;;;;;;;13.70;7.90;;;;;;;1.82;79.73;99608.38;213225;1276;61314;-73
2023/01/31 20:17:30;;;;;;;12.40;8.10;;;;;;;1.83;79.81;99594.06;213212;1273;61396;-74
2023/01/31 20:22:23;;;;;;;14.80;6.80;;;;;;;1.82;79.92;99588.58;214071;1273;62911;-73
2023/01/31 20:27:16;;;;;;;16.80;8.70;;;;;;;1.82;80.24;99571.80;213795;1272;61147;-73
2023/01/31 20:32:12;;;;;;;15.70;8.90;;;;;;;1.80;80.46;99556.55;213485;1272;62529;-73
2023/01/31 20:37:04;;;;;;;12.30;7.70;;;;;;;1.80;80.68;99553.63;213735;1263;61431;-73
2023/01/31 20:41:57;;;;;;;12.30;7.00;;;;;;;1.82;81.08;99543.10;214612;1264;61543;-74
2023/01/31 20:46:50;;;;;;;11.70;6.80;;;;;;;1.83;81.35;99538.89;215019;1263;61324;-73
2023/01/31 20:51:43;;;;;;;12.50;6.10;;;;;;;1.84;81.39;99523.54;214551;1264;61342;-73
2023/01/31 20:56:36;;;;;;;10.40;6.90;;;;;;;1.86;81.51;99516.92;214412;1265;61282;-73
2023/01/31 21:01:29;;;;;;;12.30;7.80;;;;;;;1.85;81.67;99510.58;214380;1267;61301;-73
2023/01/31 21:06:22;;;;;;;12.60;7.40;;;;;;;1.83;81.93;99502.66;214805;1263;61381;-73
2023/01/31 21:11:15;;;;;;;18.00;8.50;;;;;;;1.84;82.03;99495.17;214380;1264;61986;-73
2023/01/31 21:16:10;;;;;;;11.70;7.30;;;;;;;1.83;82.34;99484.20;214453;1264;61354;-72
2023/01/31 21:21:08;;;;;;;10.10;7.20;;;;;;;1.83;82.67;99479.23;214300;1264;66989;-72
2023/01/31 21:26:02;;;;;;;10.30;7.40;;;;;;;1.81;82.90;99469.95;214528;1264;61399;-72
2023/01/31 21:31:00;;;;;;;10.10;7.10;;;;;;;1.80;83.21;99458.46;214427;1264;75467;-73
2023/01/31 21:35:56;;;;;;;9.30;6.80;;;;;;;1.80;83.30;99448.41;214378;1264;72469;-72
2023/01/31 21:42:13;;;;;;;14.70;9.30;;;;;;;1.82;83.52;99442.63;214517;1264;61274;-72
2023/01/31 21:46:08;;;;;;;13.30;8.10;;;;;;;1.83;83.41;99427.11;214435;1264;66943;-72
2023/01/31 21:51:06;;;;;;;10.20;6.50;;;;;;;1.82;83.75;99422.66;214432;1264;61370;-73
2023/01/31 21:56:09;;;;;;;11.60;7.90;;;;;;;1.82;83.92;99409.84;214294;1264;72867;-73
2023/01/31 22:01:03;;;;;;;9.90;6.50;;;;;;;1.84;84.19;99398.45;214328;1266;72357;-73
2023/01/31 22:06:04;;;;;;;11.00;7.60;;;;;;;1.82;84.53;99393.10;214469;1264;61285;-72
2023/01/31 22:11:05;;;;;;;9.50;7.50;;;;;;;1.82;84.46;99382.65;214473;1263;66878;-72
2023/01/31 22:16:08;;;;;;;11.80;8.70;;;;;;;1.82;84.59;99372.77;214436;1264;61388;-73
2023/01/31 22:21:12;;;;;;;9.30;6.40;;;;;;;1.80;84.73;99370.81;214998;1264;74432;-73
2023/01/31 22:26:12;;;;;;;5.40;4.40;;;;;;;1.72;84.26;99366.48;214281;1264;73967;-73
2023/01/31 22:31:06;;;;;;;7.50;5.80;;;;;;;1.60;84.26;99364.74;214240;1264;61402;-72
2023/01/31 22:35:59;;;;;;;7.90;6.00;;;;;;;1.50;83.93;99350.95;214394;1264;67879;-72
2023/01/31 22:40:57;;;;;;;10.70;6.30;;;;;;;1.44;84.54;99344.09;214346;1267;61364;-72
2023/01/31 22:45:54;;;;;;;7.20;6.30;;;;;;;1.41;84.66;99341.77;214441;1267;73647;-73
2023/01/31 22:50:54;;;;;;;7.40;6.40;;;;;;;1.38;84.79;99335.85;214550;1264;72385;-73
2023/01/31 22:55:50;;;;;;;7.10;5.50;;;;;;;1.38;85.19;99327.14;214517;1264;61145;-74
2023/01/31 23:00:42;;;;;;;6.30;4.50;;;;;;;1.38;85.18;99322.73;214205;1263;66774;-73
2023/01/31 23:05:40;;;;;;;7.40;5.70;;;;;;;1.41;85.42;99311.36;214513;1264;61363;-73
2023/01/31 23:10:32;;;;;;;7.30;5.60;;;;;;;1.44;85.74;99307.73;214577;1264;73982;-73
2023/01/31 23:15:25;;;;;;;7.10;6.30;;;;;;;1.48;85.81;99299.48;214437;1263;61970;-73